sensor_id;sensor_type;location;lat;lon;timestamp;P1;durP1;ratioP1;P2;durP2;ratioP2
62709;SDS011;48770;51.624;5.886;2023-03-01T00:00:49;0.50;;;0.50;;
62709;SDS011;48770;51.624;5.886;2023-03-01T00:03:15;1.02;;;0.43;;
62709;SDS011;48770;51.624;5.886;2023-03-01T00:05:44;0.82;;;0.50;;
62709;SDS011;48770;51.624;5.886;2023-03-01T00:08:10;0.63;;;0.50;;
62709;SDS011;48770;51.624;5.886;2023-03-01T00:10:36;0.88;;;0.73;;
62709;SDS011;48770;51.624;5.886;2023-03-01T00:13:01;0.70;;;0.60;;
62709;SDS011;48770;51.624;5.886;2023-03-01T00:15:27;0.95;;;0.70;;
62709;SDS011;48770;51.624;5.886;2023-03-01T00:17:53;0.35;;;0.30;;
62709;SDS011;48770;51.624;5.886;2023-03-01T00:20:18;0.52;;;0.50;;
62709;SDS011;48770;51.624;5.886;2023-03-01T00:22:43;0.50;;;0.45;;
62709;SDS011;48770;51.624;5.886;2023-03-01T00:25:08;0.45;;;0.45;;
62709;SDS011;48770;51.624;5.886;2023-03-01T00:27:34;0.77;;;0.50;;
62709;SDS011;48770;51.624;5.886;2023-03-01T00:29:59;0.50;;;0.50;;
62709;SDS011;48770;51.624;5.886;2023-03-01T00:32:24;0.50;;;0.43;;
62709;SDS011;48770;51.624;5.886;2023-03-01T00:34:50;0.70;;;0.55;;
62709;SDS011;48770;51.624;5.886;2023-03-01T00:37:24;0.52;;;0.50;;
62709;SDS011;48770;51.624;5.886;2023-03-01T00:39:49;0.60;;;0.55;;
62709;SDS011;48770;51.624;5.886;2023-03-01T00:42:15;1.02;;;0.50;;
62709;SDS011;48770;51.624;5.886;2023-03-01T00:44:41;0.60;;;0.50;;
62709;SDS011;48770;51.624;5.886;2023-03-01T00:47:06;0.38;;;0.38;;
62709;SDS011;48770;51.624;5.886;2023-03-01T00:49:31;0.60;;;0.50;;
62709;SDS011;48770;51.624;5.886;2023-03-01T00:51:57;0.98;;;0.65;;
62709;SDS011;48770;51.624;5.886;2023-03-01T00:54:22;0.73;;;0.43;;
62709;SDS011;48770;51.624;5.886;2023-03-01T00:56:47;0.40;;;0.40;;
62709;SDS011;48770;51.624;5.886;2023-03-01T00:59:13;0.60;;;0.50;;
62709;SDS011;48770;51.624;5.886;2023-03-01T01:01:38;0.50;;;0.43;;
62709;SDS011;48770;51.624;5.886;2023-03-01T01:04:05;1.23;;;0.60;;
62709;SDS011;48770;51.624;5.886;2023-03-01T01:06:34;0.45;;;0.38;;
62709;SDS011;48770;51.624;5.886;2023-03-01T01:09:02;0.70;;;0.47;;
62709;SDS011;48770;51.624;5.886;2023-03-01T01:11:29;0.40;;;0.40;;
62709;SDS011;48770;51.624;5.886;2023-03-01T01:13:55;0.57;;;0.50;;
62709;SDS011;48770;51.624;5.886;2023-03-01T01:16:22;0.70;;;0.60;;
62709;SDS011;48770;51.624;5.886;2023-03-01T01:18:48;1.33;;;0.50;;
62709;SDS011;48770;51.624;5.886;2023-03-01T01:21:15;0.68;;;0.50;;
62709;SDS011;48770;51.624;5.886;2023-03-01T01:23:43;0.75;;;0.57;;
62709;SDS011;48770;51.624;5.886;2023-03-01T01:26:10;1.00;;;0.60;;
62709;SDS011;48770;51.624;5.886;2023-03-01T01:28:38;0.57;;;0.40;;
62709;SDS011;48770;51.624;5.886;2023-03-01T01:31:04;1.15;;;0.55;;
62709;SDS011;48770;51.624;5.886;2023-03-01T01:33:31;0.68;;;0.57;;
62709;SDS011;48770;51.624;5.886;2023-03-01T01:35:57;0.52;;;0.50;;
62709;SDS011;48770;51.624;5.886;2023-03-01T01:38:22;0.47;;;0.47;;
62709;SDS011;48770;51.624;5.886;2023-03-01T01:40:48;1.08;;;0.47;;
62709;SDS011;48770;51.624;5.886;2023-03-01T01:43:18;0.50;;;0.50;;
62709;SDS011;48770;51.624;5.886;2023-03-01T01:45:47;0.60;;;0.40;;
62709;SDS011;48770;51.624;5.886;2023-03-01T01:48:14;0.68;;;0.60;;
62709;SDS011;48770;51.624;5.886;2023-03-01T01:50:49;0.82;;;0.50;;
62709;SDS011;48770;51.624;5.886;2023-03-01T01:53:20;0.98;;;0.45;;
62709;SDS011;48770;51.624;5.886;2023-03-01T01:55:47;1.05;;;0.70;;
62709;SDS011;48770;51.624;5.886;2023-03-01T01:58:17;0.43;;;0.43;;
62709;SDS011;48770;51.624;5.886;2023-03-01T02:00:45;0.50;;;0.50;;
62709;SDS011;48770;51.624;5.886;2023-03-01T02:03:13;0.70;;;0.50;;
62709;SDS011;48770;51.624;5.886;2023-03-01T02:05:52;0.85;;;0.60;;
62709;SDS011;48770;51.624;5.886;2023-03-01T02:08:29;0.73;;;0.40;;
62709;SDS011;48770;51.624;5.886;2023-03-01T02:10:58;0.70;;;0.52;;
62709;SDS011;48770;51.624;5.886;2023-03-01T02:13:25;0.70;;;0.50;;
62709;SDS011;48770;51.624;5.886;2023-03-01T02:15:51;1.33;;;0.60;;
62709;SDS011;48770;51.624;5.886;2023-03-01T02:18:17;0.90;;;0.68;;
62709;SDS011;48770;51.624;5.886;2023-03-01T02:23:38;0.85;;;0.45;;
62709;SDS011;48770;51.624;5.886;2023-03-01T02:31:07;1.00;;;0.60;;
62709;SDS011;48770;51.624;5.886;2023-03-01T02:33:54;0.75;;;0.60;;
62709;SDS011;48770;51.624;5.886;2023-03-01T02:36:22;0.93;;;0.50;;
62709;SDS011;48770;51.624;5.886;2023-03-01T02:38:51;0.50;;;0.50;;
62709;SDS011;48770;51.624;5.886;2023-03-01T02:41:19;1.00;;;0.50;;
62709;SDS011;48770;51.624;5.886;2023-03-01T02:43:45;0.85;;;0.73;;
62709;SDS011;48770;51.624;5.886;2023-03-01T02:46:16;0.65;;;0.50;;
62709;SDS011;48770;51.624;5.886;2023-03-01T02:48:45;0.65;;;0.40;;
62709;SDS011;48770;51.624;5.886;2023-03-01T02:56:51;0.90;;;0.43;;
62709;SDS011;48770;51.624;5.886;2023-03-01T02:59:18;0.63;;;0.57;;
62709;SDS011;48770;51.624;5.886;2023-03-01T03:01:46;0.65;;;0.43;;
62709;SDS011;48770;51.624;5.886;2023-03-01T03:04:13;0.65;;;0.52;;
62709;SDS011;48770;51.624;5.886;2023-03-01T03:06:44;0.70;;;0.60;;
62709;SDS011;48770;51.624;5.886;2023-03-01T03:09:10;0.50;;;0.40;;
62709;SDS011;48770;51.624;5.886;2023-03-01T03:11:37;0.50;;;0.50;;
62709;SDS011;48770;51.624;5.886;2023-03-01T03:14:07;0.63;;;0.52;;
62709;SDS011;48770;51.624;5.886;2023-03-01T03:16:41;0.88;;;0.60;;
62709;SDS011;48770;51.624;5.886;2023-03-01T03:19:07;0.90;;;0.63;;
62709;SDS011;48770;51.624;5.886;2023-03-01T03:21:32;0.80;;;0.55;;
62709;SDS011;48770;51.624;5.886;2023-03-01T03:23:58;0.93;;;0.43;;
62709;SDS011;48770;51.624;5.886;2023-03-01T03:26:24;0.98;;;0.60;;
62709;SDS011;48770;51.624;5.886;2023-03-01T03:28:50;0.38;;;0.38;;
62709;SDS011;48770;51.624;5.886;2023-03-01T03:31:15;0.80;;;0.60;;
62709;SDS011;48770;51.624;5.886;2023-03-01T03:33:40;0.68;;;0.60;;
62709;SDS011;48770;51.624;5.886;2023-03-01T03:36:06;0.50;;;0.40;;
62709;SDS011;48770;51.624;5.886;2023-03-01T03:38:31;0.60;;;0.50;;
62709;SDS011;48770;51.624;5.886;2023-03-01T03:41:04;0.55;;;0.50;;
62709;SDS011;48770;51.624;5.886;2023-03-01T03:43:33;0.65;;;0.60;;
62709;SDS011;48770;51.624;5.886;2023-03-01T03:46:00;0.40;;;0.40;;
62709;SDS011;48770;51.624;5.886;2023-03-01T03:48:30;0.75;;;0.55;;
62709;SDS011;48770;51.624;5.886;2023-03-01T03:50:56;0.75;;;0.52;;
62709;SDS011;48770;51.624;5.886;2023-03-01T03:53:22;0.50;;;0.50;;
62709;SDS011;48770;51.624;5.886;2023-03-01T03:55:49;0.70;;;0.52;;
62709;SDS011;48770;51.624;5.886;2023-03-01T03:58:14;0.73;;;0.60;;
62709;SDS011;48770;51.624;5.886;2023-03-01T04:00:42;0.50;;;0.50;;
62709;SDS011;48770;51.624;5.886;2023-03-01T04:03:09;0.50;;;0.40;;
62709;SDS011;48770;51.624;5.886;2023-03-01T04:05:37;0.60;;;0.55;;
62709;SDS011;48770;51.624;5.886;2023-03-01T04:08:04;0.50;;;0.40;;
62709;SDS011;48770;51.624;5.886;2023-03-01T04:10:43;0.50;;;0.50;;
62709;SDS011;48770;51.624;5.886;2023-03-01T04:13:10;0.50;;;0.40;;
62709;SDS011;48770;51.624;5.886;2023-03-01T04:15:38;1.10;;;0.60;;
62709;SDS011;48770;51.624;5.886;2023-03-01T04:18:04;0.47;;;0.43;;
62709;SDS011;48770;51.624;5.886;2023-03-01T04:20:31;0.82;;;0.50;;
62709;SDS011;48770;51.624;5.886;2023-03-01T04:23:00;0.80;;;0.63;;
62709;SDS011;48770;51.624;5.886;2023-03-01T04:25:35;1.95;;;0.63;;
62709;SDS011;48770;51.624;5.886;2023-03-01T04:28:02;0.70;;;0.50;;
62709;SDS011;48770;51.624;5.886;2023-03-01T04:30:27;0.82;;;0.63;;
62709;SDS011;48770;51.624;5.886;2023-03-01T04:32:52;1.02;;;0.52;;
62709;SDS011;48770;51.624;5.886;2023-03-01T04:35:18;0.82;;;0.77;;
62709;SDS011;48770;51.624;5.886;2023-03-01T04:37:43;1.20;;;0.60;;
62709;SDS011;48770;51.624;5.886;2023-03-01T04:40:10;0.65;;;0.50;;
62709;SDS011;48770;51.624;5.886;2023-03-01T04:42:41;1.10;;;0.55;;
62709;SDS011;48770;51.624;5.886;2023-03-01T04:45:07;0.80;;;0.70;;
62709;SDS011;48770;51.624;5.886;2023-03-01T04:47:38;1.02;;;0.63;;
62709;SDS011;48770;51.624;5.886;2023-03-01T04:50:04;0.98;;;0.60;;
62709;SDS011;48770;51.624;5.886;2023-03-01T04:52:30;0.50;;;0.45;;
62709;SDS011;48770;51.624;5.886;2023-03-01T04:54:56;0.50;;;0.50;;
62709;SDS011;48770;51.624;5.886;2023-03-01T04:57:22;0.95;;;0.80;;
62709;SDS011;48770;51.624;5.886;2023-03-01T04:59:47;0.70;;;0.70;;
62709;SDS011;48770;51.624;5.886;2023-03-01T05:02:12;0.50;;;0.40;;
62709;SDS011;48770;51.624;5.886;2023-03-01T05:04:38;0.80;;;0.50;;
62709;SDS011;48770;51.624;5.886;2023-03-01T05:07:03;0.73;;;0.63;;
62709;SDS011;48770;51.624;5.886;2023-03-01T05:09:29;0.82;;;0.60;;
62709;SDS011;48770;51.624;5.886;2023-03-01T05:11:54;0.50;;;0.50;;
62709;SDS011;48770;51.624;5.886;2023-03-01T05:14:19;0.55;;;0.40;;
62709;SDS011;48770;51.624;5.886;2023-03-01T05:16:44;0.70;;;0.50;;
62709;SDS011;48770;51.624;5.886;2023-03-01T05:19:10;0.70;;;0.50;;
62709;SDS011;48770;51.624;5.886;2023-03-01T05:21:41;0.70;;;0.50;;
62709;SDS011;48770;51.624;5.886;2023-03-01T05:24:26;0.52;;;0.50;;
62709;SDS011;48770;51.624;5.886;2023-03-01T05:26:51;0.50;;;0.40;;
62709;SDS011;48770;51.624;5.886;2023-03-01T05:29:21;0.30;;;0.30;;
62709;SDS011;48770;51.624;5.886;2023-03-01T05:31:53;1.13;;;0.52;;
62709;SDS011;48770;51.624;5.886;2023-03-01T05:34:23;0.57;;;0.57;;
62709;SDS011;48770;51.624;5.886;2023-03-01T05:36:53;0.70;;;0.43;;
62709;SDS011;48770;51.624;5.886;2023-03-01T05:39:22;1.05;;;0.60;;
62709;SDS011;48770;51.624;5.886;2023-03-01T05:41:53;0.65;;;0.63;;
62709;SDS011;48770;51.624;5.886;2023-03-01T05:44:19;0.98;;;0.55;;
62709;SDS011;48770;51.624;5.886;2023-03-01T05:46:45;0.50;;;0.45;;
62709;SDS011;48770;51.624;5.886;2023-03-01T05:49:12;0.70;;;0.52;;
62709;SDS011;48770;51.624;5.886;2023-03-01T05:51:38;0.80;;;0.43;;
62709;SDS011;48770;51.624;5.886;2023-03-01T05:54:05;1.27;;;0.73;;
62709;SDS011;48770;51.624;5.886;2023-03-01T05:56:32;0.80;;;0.60;;
62709;SDS011;48770;51.624;5.886;2023-03-01T05:59:01;0.60;;;0.50;;
62709;SDS011;48770;51.624;5.886;2023-03-01T06:01:27;1.33;;;0.70;;
62709;SDS011;48770;51.624;5.886;2023-03-01T06:03:53;0.82;;;0.68;;
62709;SDS011;48770;51.624;5.886;2023-03-01T06:06:18;0.57;;;0.40;;
62709;SDS011;48770;51.624;5.886;2023-03-01T06:08:43;0.50;;;0.50;;
62709;SDS011;48770;51.624;5.886;2023-03-01T06:11:09;1.27;;;0.50;;
62709;SDS011;48770;51.624;5.886;2023-03-01T06:13:34;0.70;;;0.60;;
62709;SDS011;48770;51.624;5.886;2023-03-01T06:15:59;1.05;;;0.70;;
62709;SDS011;48770;51.624;5.886;2023-03-01T06:18:25;1.00;;;0.95;;
62709;SDS011;48770;51.624;5.886;2023-03-01T06:20:54;0.57;;;0.52;;
62709;SDS011;48770;51.624;5.886;2023-03-01T06:23:20;0.82;;;0.47;;
62709;SDS011;48770;51.624;5.886;2023-03-01T06:25:45;0.75;;;0.70;;
62709;SDS011;48770;51.624;5.886;2023-03-01T06:28:11;0.93;;;0.60;;
62709;SDS011;48770;51.624;5.886;2023-03-01T06:30:36;0.52;;;0.45;;
62709;SDS011;48770;51.624;5.886;2023-03-01T06:33:01;0.52;;;0.47;;
62709;SDS011;48770;51.624;5.886;2023-03-01T06:35:28;1.08;;;0.60;;
62709;SDS011;48770;51.624;5.886;2023-03-01T06:37:55;0.80;;;0.70;;
62709;SDS011;48770;51.624;5.886;2023-03-01T06:40:21;1.00;;;0.73;;
62709;SDS011;48770;51.624;5.886;2023-03-01T06:42:50;0.60;;;0.40;;
62709;SDS011;48770;51.624;5.886;2023-03-01T06:45:16;0.75;;;0.60;;
62709;SDS011;48770;51.624;5.886;2023-03-01T06:47:45;0.88;;;0.77;;
62709;SDS011;48770;51.624;5.886;2023-03-01T06:50:11;0.85;;;0.70;;
62709;SDS011;48770;51.624;5.886;2023-03-01T06:52:37;0.57;;;0.30;;
62709;SDS011;48770;51.624;5.886;2023-03-01T06:55:04;0.73;;;0.50;;
62709;SDS011;48770;51.624;5.886;2023-03-01T06:57:30;0.93;;;0.40;;
62709;SDS011;48770;51.624;5.886;2023-03-01T06:59:56;0.93;;;0.50;;
62709;SDS011;48770;51.624;5.886;2023-03-01T07:02:21;0.60;;;0.50;;
62709;SDS011;48770;51.624;5.886;2023-03-01T07:04:48;0.80;;;0.63;;
62709;SDS011;48770;51.624;5.886;2023-03-01T07:07:14;0.80;;;0.52;;
62709;SDS011;48770;51.624;5.886;2023-03-01T07:09:40;0.70;;;0.65;;
62709;SDS011;48770;51.624;5.886;2023-03-01T07:12:05;0.98;;;0.50;;
62709;SDS011;48770;51.624;5.886;2023-03-01T07:14:31;0.95;;;0.50;;
62709;SDS011;48770;51.624;5.886;2023-03-01T07:16:56;0.93;;;0.60;;
62709;SDS011;48770;51.624;5.886;2023-03-01T07:19:21;1.08;;;0.70;;
62709;SDS011;48770;51.624;5.886;2023-03-01T07:21:47;1.00;;;0.63;;
62709;SDS011;48770;51.624;5.886;2023-03-01T07:24:13;0.68;;;0.50;;
62709;SDS011;48770;51.624;5.886;2023-03-01T07:26:38;1.35;;;0.75;;
62709;SDS011;48770;51.624;5.886;2023-03-01T07:29:04;0.60;;;0.50;;
62709;SDS011;48770;51.624;5.886;2023-03-01T07:31:31;0.80;;;0.68;;
62709;SDS011;48770;51.624;5.886;2023-03-01T07:33:57;0.82;;;0.70;;
62709;SDS011;48770;51.624;5.886;2023-03-01T07:36:22;0.82;;;0.68;;
62709;SDS011;48770;51.624;5.886;2023-03-01T07:38:48;0.60;;;0.60;;
62709;SDS011;48770;51.624;5.886;2023-03-01T07:41:13;0.88;;;0.60;;
62709;SDS011;48770;51.624;5.886;2023-03-01T07:43:39;0.75;;;0.55;;
62709;SDS011;48770;51.624;5.886;2023-03-01T07:46:04;0.60;;;0.50;;
62709;SDS011;48770;51.624;5.886;2023-03-01T07:48:31;0.50;;;0.50;;
62709;SDS011;48770;51.624;5.886;2023-03-01T07:51:00;1.08;;;0.60;;
62709;SDS011;48770;51.624;5.886;2023-03-01T07:53:26;0.88;;;0.73;;
62709;SDS011;48770;51.624;5.886;2023-03-01T07:56:02;0.95;;;0.60;;
62709;SDS011;48770;51.624;5.886;2023-03-01T07:58:33;0.60;;;0.52;;
62709;SDS011;48770;51.624;5.886;2023-03-01T08:01:01;0.57;;;0.55;;
62709;SDS011;48770;51.624;5.886;2023-03-01T08:03:27;0.90;;;0.70;;
62709;SDS011;48770;51.624;5.886;2023-03-01T08:05:53;0.70;;;0.60;;
62709;SDS011;48770;51.624;5.886;2023-03-01T08:08:18;1.02;;;0.88;;
62709;SDS011;48770;51.624;5.886;2023-03-01T08:10:43;1.15;;;0.68;;
62709;SDS011;48770;51.624;5.886;2023-03-01T08:13:08;1.98;;;0.60;;
62709;SDS011;48770;51.624;5.886;2023-03-01T08:15:34;0.90;;;0.60;;
62709;SDS011;48770;51.624;5.886;2023-03-01T08:17:59;1.08;;;0.70;;
62709;SDS011;48770;51.624;5.886;2023-03-01T08:20:25;0.77;;;0.60;;
62709;SDS011;48770;51.624;5.886;2023-03-01T08:22:51;0.90;;;0.70;;
62709;SDS011;48770;51.624;5.886;2023-03-01T08:25:16;0.77;;;0.70;;
62709;SDS011;48770;51.624;5.886;2023-03-01T08:27:41;0.90;;;0.63;;
62709;SDS011;48770;51.624;5.886;2023-03-01T08:30:07;1.17;;;0.68;;
62709;SDS011;48770;51.624;5.886;2023-03-01T08:32:36;0.80;;;0.70;;
62709;SDS011;48770;51.624;5.886;2023-03-01T08:35:03;0.90;;;0.75;;
62709;SDS011;48770;51.624;5.886;2023-03-01T08:37:29;1.00;;;0.73;;
62709;SDS011;48770;51.624;5.886;2023-03-01T08:39:55;0.60;;;0.60;;
62709;SDS011;48770;51.624;5.886;2023-03-01T08:42:21;0.90;;;0.70;;
62709;SDS011;48770;51.624;5.886;2023-03-01T08:44:46;0.93;;;0.85;;
62709;SDS011;48770;51.624;5.886;2023-03-01T08:47:12;1.10;;;0.60;;
62709;SDS011;48770;51.624;5.886;2023-03-01T08:49:37;0.68;;;0.50;;
62709;SDS011;48770;51.624;5.886;2023-03-01T08:52:02;0.60;;;0.43;;
62709;SDS011;48770;51.624;5.886;2023-03-01T08:54:28;0.60;;;0.60;;
62709;SDS011;48770;51.624;5.886;2023-03-01T08:56:53;0.77;;;0.65;;
62709;SDS011;48770;51.624;5.886;2023-03-01T08:59:19;0.60;;;0.60;;
62709;SDS011;48770;51.624;5.886;2023-03-01T09:01:44;0.50;;;0.43;;
62709;SDS011;48770;51.624;5.886;2023-03-01T09:04:10;0.90;;;0.50;;
62709;SDS011;48770;51.624;5.886;2023-03-01T09:06:36;0.93;;;0.70;;
62709;SDS011;48770;51.624;5.886;2023-03-01T09:09:03;0.60;;;0.45;;
62709;SDS011;48770;51.624;5.886;2023-03-01T09:11:30;0.60;;;0.50;;
62709;SDS011;48770;51.624;5.886;2023-03-01T09:13:55;0.75;;;0.60;;
62709;SDS011;48770;51.624;5.886;2023-03-01T09:16:21;0.60;;;0.40;;
62709;SDS011;48770;51.624;5.886;2023-03-01T09:18:50;0.60;;;0.47;;
62709;SDS011;48770;51.624;5.886;2023-03-01T09:21:17;0.55;;;0.40;;
62709;SDS011;48770;51.624;5.886;2023-03-01T09:23:45;0.80;;;0.65;;
62709;SDS011;48770;51.624;5.886;2023-03-01T09:26:12;0.65;;;0.50;;
62709;SDS011;48770;51.624;5.886;2023-03-01T09:28:41;0.75;;;0.50;;
62709;SDS011;48770;51.624;5.886;2023-03-01T09:31:07;0.65;;;0.45;;
62709;SDS011;48770;51.624;5.886;2023-03-01T09:33:33;0.73;;;0.40;;
62709;SDS011;48770;51.624;5.886;2023-03-01T09:35:59;0.30;;;0.30;;
62709;SDS011;48770;51.624;5.886;2023-03-01T09:38:26;0.77;;;0.50;;
62709;SDS011;48770;51.624;5.886;2023-03-01T09:40:52;0.40;;;0.32;;
62709;SDS011;48770;51.624;5.886;2023-03-01T09:45:47;0.43;;;0.43;;
62709;SDS011;48770;51.624;5.886;2023-03-01T09:48:19;0.77;;;0.50;;
62709;SDS011;48770;51.624;5.886;2023-03-01T09:50:49;0.50;;;0.40;;
62709;SDS011;48770;51.624;5.886;2023-03-01T09:53:17;0.57;;;0.45;;
62709;SDS011;48770;51.624;5.886;2023-03-01T10:05:00;0.68;;;0.47;;
62709;SDS011;48770;51.624;5.886;2023-03-01T10:07:42;0.52;;;0.43;;
62709;SDS011;48770;51.624;5.886;2023-03-01T10:10:28;0.57;;;0.52;;
62709;SDS011;48770;51.624;5.886;2023-03-01T10:12:57;0.43;;;0.40;;
62709;SDS011;48770;51.624;5.886;2023-03-01T10:15:53;0.65;;;0.45;;
62709;SDS011;48770;51.624;5.886;2023-03-01T10:18:23;0.30;;;0.30;;
62709;SDS011;48770;51.624;5.886;2023-03-01T10:21:01;0.55;;;0.43;;
62709;SDS011;48770;51.624;5.886;2023-03-01T10:23:34;0.35;;;0.30;;
62709;SDS011;48770;51.624;5.886;2023-03-01T10:26:05;0.40;;;0.30;;
62709;SDS011;48770;51.624;5.886;2023-03-01T10:28:47;0.50;;;0.47;;
62709;SDS011;48770;51.624;5.886;2023-03-01T10:34:16;0.60;;;0.40;;
62709;SDS011;48770;51.624;5.886;2023-03-01T10:36:43;0.70;;;0.50;;
62709;SDS011;48770;51.624;5.886;2023-03-01T10:39:17;0.40;;;0.40;;
62709;SDS011;48770;51.624;5.886;2023-03-01T10:41:51;0.70;;;0.50;;
62709;SDS011;48770;51.624;5.886;2023-03-01T10:44:41;0.60;;;0.47;;
62709;SDS011;48770;51.624;5.886;2023-03-01T10:47:13;0.65;;;0.30;;
62709;SDS011;48770;51.624;5.886;2023-03-01T10:50:18;0.80;;;0.55;;
62709;SDS011;48770;51.624;5.886;2023-03-01T10:52:55;0.43;;;0.40;;
62709;SDS011;48770;51.624;5.886;2023-03-01T10:55:24;0.57;;;0.52;;
62709;SDS011;48770;51.624;5.886;2023-03-01T10:58:18;0.50;;;0.30;;
62709;SDS011;48770;51.624;5.886;2023-03-01T11:00:46;0.65;;;0.50;;
62709;SDS011;48770;51.624;5.886;2023-03-01T11:03:14;0.75;;;0.57;;
62709;SDS011;48770;51.624;5.886;2023-03-01T11:05:51;0.50;;;0.40;;
62709;SDS011;48770;51.624;5.886;2023-03-01T11:08:35;0.40;;;0.30;;
62709;SDS011;48770;51.624;5.886;2023-03-01T11:11:03;0.50;;;0.30;;
62709;SDS011;48770;51.624;5.886;2023-03-01T11:13:30;0.32;;;0.30;;
62709;SDS011;48770;51.624;5.886;2023-03-01T11:16:06;0.47;;;0.40;;
62709;SDS011;48770;51.624;5.886;2023-03-01T11:18:35;0.45;;;0.38;;
62709;SDS011;48770;51.624;5.886;2023-03-01T11:21:00;0.30;;;0.30;;
62709;SDS011;48770;51.624;5.886;2023-03-01T11:23:28;0.50;;;0.40;;
62709;SDS011;48770;51.624;5.886;2023-03-01T11:25:57;0.50;;;0.30;;
62709;SDS011;48770;51.624;5.886;2023-03-01T11:28:25;0.45;;;0.30;;
62709;SDS011;48770;51.624;5.886;2023-03-01T11:31:04;0.63;;;0.38;;
62709;SDS011;48770;51.624;5.886;2023-03-01T11:38:54;0.40;;;0.30;;
62709;SDS011;48770;51.624;5.886;2023-03-01T11:41:21;0.50;;;0.40;;
62709;SDS011;48770;51.624;5.886;2023-03-01T11:44:05;0.40;;;0.28;;
62709;SDS011;48770;51.624;5.886;2023-03-01T11:50:02;0.50;;;0.35;;
62709;SDS011;48770;51.624;5.886;2023-03-01T11:52:59;0.43;;;0.22;;
62709;SDS011;48770;51.624;5.886;2023-03-01T11:55:45;0.25;;;0.25;;
62709;SDS011;48770;51.624;5.886;2023-03-01T11:58:22;0.38;;;0.25;;
62709;SDS011;48770;51.624;5.886;2023-03-01T12:01:15;0.30;;;0.30;;
62709;SDS011;48770;51.624;5.886;2023-03-01T12:03:51;0.63;;;0.40;;
62709;SDS011;48770;51.624;5.886;2023-03-01T12:11:39;0.50;;;0.40;;
62709;SDS011;48770;51.624;5.886;2023-03-01T12:17:00;2.78;;;0.50;;
62709;SDS011;48770;51.624;5.886;2023-03-01T12:39:29;0.50;;;0.47;;
62709;SDS011;48770;51.624;5.886;2023-03-01T12:44:53;0.50;;;0.32;;
62709;SDS011;48770;51.624;5.886;2023-03-01T12:50:44;0.50;;;0.40;;
62709;SDS011;48770;51.624;5.886;2023-03-01T12:55:51;0.47;;;0.40;;
62709;SDS011;48770;51.624;5.886;2023-03-01T13:01:19;0.60;;;0.50;;
62709;SDS011;48770;51.624;5.886;2023-03-01T13:04:16;0.63;;;0.40;;
62709;SDS011;48770;51.624;5.886;2023-03-01T13:11:59;0.73;;;0.45;;
62709;SDS011;48770;51.624;5.886;2023-03-01T13:16:53;1.03;;;0.33;;
62709;SDS011;48770;51.624;5.886;2023-03-01T13:19:26;0.50;;;0.40;;
62709;SDS011;48770;51.624;5.886;2023-03-01T13:22:01;0.38;;;0.25;;
62709;SDS011;48770;51.624;5.886;2023-03-01T13:25:01;0.20;;;0.20;;
62709;SDS011;48770;51.624;5.886;2023-03-01T13:27:43;0.50;;;0.43;;
62709;SDS011;48770;51.624;5.886;2023-03-01T13:35:48;0.30;;;0.25;;
62709;SDS011;48770;51.624;5.886;2023-03-01T13:38:36;0.73;;;0.40;;
62709;SDS011;48770;51.624;5.886;2023-03-01T13:41:17;0.43;;;0.30;;
62709;SDS011;48770;51.624;5.886;2023-03-01T13:44:11;0.47;;;0.30;;
62709;SDS011;48770;51.624;5.886;2023-03-01T13:46:49;0.45;;;0.30;;
62709;SDS011;48770;51.624;5.886;2023-03-01T13:49:18;0.85;;;0.30;;
62709;SDS011;48770;51.624;5.886;2023-03-01T13:51:46;0.70;;;0.40;;
62709;SDS011;48770;51.624;5.886;2023-03-01T13:54:14;0.20;;;0.20;;
62709;SDS011;48770;51.624;5.886;2023-03-01T13:56:47;0.63;;;0.38;;
62709;SDS011;48770;51.624;5.886;2023-03-01T13:59:13;0.52;;;0.40;;
62709;SDS011;48770;51.624;5.886;2023-03-01T14:01:40;0.32;;;0.30;;
62709;SDS011;48770;51.624;5.886;2023-03-01T14:04:18;0.40;;;0.40;;
62709;SDS011;48770;51.624;5.886;2023-03-01T14:06:48;0.30;;;0.30;;
62709;SDS011;48770;51.624;5.886;2023-03-01T14:09:21;1.23;;;0.40;;
62709;SDS011;48770;51.624;5.886;2023-03-01T14:17:38;0.30;;;0.25;;
62709;SDS011;48770;51.624;5.886;2023-03-01T14:20:11;0.52;;;0.40;;
62709;SDS011;48770;51.624;5.886;2023-03-01T14:22:41;0.50;;;0.30;;
62709;SDS011;48770;51.624;5.886;2023-03-01T14:28:10;0.40;;;0.20;;
62709;SDS011;48770;51.624;5.886;2023-03-01T14:30:47;0.52;;;0.35;;
62709;SDS011;48770;51.624;5.886;2023-03-01T14:36:00;0.25;;;0.20;;
62709;SDS011;48770;51.624;5.886;2023-03-01T14:38:34;0.68;;;0.43;;
62709;SDS011;48770;51.624;5.886;2023-03-01T14:41:09;0.45;;;0.30;;
62709;SDS011;48770;51.624;5.886;2023-03-01T14:43:38;0.40;;;0.20;;
62709;SDS011;48770;51.624;5.886;2023-03-01T14:46:16;0.50;;;0.32;;
62709;SDS011;48770;51.624;5.886;2023-03-01T14:48:44;0.40;;;0.20;;
62709;SDS011;48770;51.624;5.886;2023-03-01T14:51:10;0.90;;;0.30;;
62709;SDS011;48770;51.624;5.886;2023-03-01T14:53:37;0.20;;;0.20;;
62709;SDS011;48770;51.624;5.886;2023-03-01T14:56:02;0.40;;;0.30;;
62709;SDS011;48770;51.624;5.886;2023-03-01T14:58:28;0.50;;;0.30;;
62709;SDS011;48770;51.624;5.886;2023-03-01T15:01:00;0.20;;;0.20;;
62709;SDS011;48770;51.624;5.886;2023-03-01T15:06:02;0.30;;;0.30;;
62709;SDS011;48770;51.624;5.886;2023-03-01T15:08:28;0.35;;;0.20;;
62709;SDS011;48770;51.624;5.886;2023-03-01T15:10:59;0.30;;;0.20;;
62709;SDS011;48770;51.624;5.886;2023-03-01T15:13:25;0.20;;;0.20;;
62709;SDS011;48770;51.624;5.886;2023-03-01T15:15:53;0.20;;;0.20;;
62709;SDS011;48770;51.624;5.886;2023-03-01T15:18:47;0.30;;;0.28;;
62709;SDS011;48770;51.624;5.886;2023-03-01T15:23:52;0.40;;;0.35;;
62709;SDS011;48770;51.624;5.886;2023-03-01T15:26:22;0.22;;;0.17;;
62709;SDS011;48770;51.624;5.886;2023-03-01T15:29:10;0.43;;;0.20;;
62709;SDS011;48770;51.624;5.886;2023-03-01T15:31:42;0.28;;;0.28;;
62709;SDS011;48770;51.624;5.886;2023-03-01T15:34:09;0.20;;;0.20;;
62709;SDS011;48770;51.624;5.886;2023-03-01T15:36:47;0.30;;;0.30;;
62709;SDS011;48770;51.624;5.886;2023-03-01T15:41:56;0.20;;;0.20;;
62709;SDS011;48770;51.624;5.886;2023-03-01T15:44:30;0.30;;;0.22;;
62709;SDS011;48770;51.624;5.886;2023-03-01T15:46:57;0.50;;;0.38;;
62709;SDS011;48770;51.624;5.886;2023-03-01T15:49:42;0.15;;;0.10;;
62709;SDS011;48770;51.624;5.886;2023-03-01T15:52:13;0.20;;;0.20;;
62709;SDS011;48770;51.624;5.886;2023-03-01T15:54:54;0.10;;;0.10;;
62709;SDS011;48770;51.624;5.886;2023-03-01T15:57:24;0.20;;;0.20;;
62709;SDS011;48770;51.624;5.886;2023-03-01T15:59:49;0.30;;;0.20;;
62709;SDS011;48770;51.624;5.886;2023-03-01T16:02:15;0.20;;;0.20;;
62709;SDS011;48770;51.624;5.886;2023-03-01T16:04:40;0.40;;;0.20;;
62709;SDS011;48770;51.624;5.886;2023-03-01T16:07:06;0.73;;;0.40;;
62709;SDS011;48770;51.624;5.886;2023-03-01T16:09:31;0.30;;;0.20;;
62709;SDS011;48770;51.624;5.886;2023-03-01T16:11:57;0.75;;;0.30;;
62709;SDS011;48770;51.624;5.886;2023-03-01T16:14:22;0.68;;;0.30;;
62709;SDS011;48770;51.624;5.886;2023-03-01T16:16:47;0.10;;;0.10;;
62709;SDS011;48770;51.624;5.886;2023-03-01T16:19:14;0.20;;;0.20;;
62709;SDS011;48770;51.624;5.886;2023-03-01T16:21:40;0.45;;;0.30;;
62709;SDS011;48770;51.624;5.886;2023-03-01T16:24:07;1.65;;;0.38;;
62709;SDS011;48770;51.624;5.886;2023-03-01T16:26:33;0.30;;;0.22;;
62709;SDS011;48770;51.624;5.886;2023-03-01T16:28:59;0.40;;;0.30;;
62709;SDS011;48770;51.624;5.886;2023-03-01T16:31:25;0.40;;;0.20;;
62709;SDS011;48770;51.624;5.886;2023-03-01T16:33:57;3.00;;;0.30;;
62709;SDS011;48770;51.624;5.886;2023-03-01T16:36:26;0.38;;;0.30;;
62709;SDS011;48770;51.624;5.886;2023-03-01T16:38:53;0.43;;;0.30;;
62709;SDS011;48770;51.624;5.886;2023-03-01T16:41:23;1.27;;;0.40;;
62709;SDS011;48770;51.624;5.886;2023-03-01T16:43:49;0.50;;;0.20;;
62709;SDS011;48770;51.624;5.886;2023-03-01T16:46:16;0.57;;;0.30;;
62709;SDS011;48770;51.624;5.886;2023-03-01T16:48:46;0.50;;;0.35;;